createdAt,value
2022-08-17T00:01:51.816Z,25.35
2022-08-17T00:04:20.830Z,24.67
2022-08-17T00:06:49.863Z,25.08
2022-08-17T00:09:19.435Z,24.60
2022-08-17T00:12:35.476Z,23.70
2022-08-17T00:14:40.218Z,24.50
2022-08-17T00:17:08.297Z,24.48
2022-08-17T00:19:36.381Z,25.52
2022-08-17T00:22:34.842Z,24.90
2022-08-17T00:24:55.006Z,26.38
2022-08-17T00:27:23.127Z,24.63
2022-08-17T00:29:52.613Z,24.50
2022-08-17T00:33:10.958Z,24.60
2022-08-17T00:35:11.483Z,23.58
2022-08-17T00:37:39.791Z,24.52
2022-08-17T00:40:09.805Z,23.83
2022-08-17T00:42:38.440Z,25.23
2022-08-17T00:45:11.036Z,23.85
2022-08-17T00:47:39.299Z,23.58
2022-08-17T00:50:11.311Z,23.95
2022-08-17T00:52:55.250Z,24.90
2022-08-17T00:55:25.168Z,23.73
2022-08-17T00:57:56.790Z,23.55
2022-08-17T01:00:29.226Z,24.15
2022-08-17T01:03:03.094Z,23.20
2022-08-17T01:05:33.219Z,24.00
2022-08-17T01:08:03.589Z,23.23
2022-08-17T01:10:58.556Z,23.90
2022-08-17T01:13:27.753Z,23.63
2022-08-17T01:16:01.413Z,24.38
2022-08-17T01:18:29.670Z,22.85
2022-08-17T01:20:59.810Z,24.98
2022-08-17T01:23:29.861Z,23.63
2022-08-17T01:26:01.791Z,23.63
2022-08-17T01:28:33.309Z,23.75
2022-08-17T01:31:20.427Z,23.80
2022-08-17T01:33:48.619Z,24.17
2022-08-17T01:36:16.738Z,24.13
2022-08-17T01:38:46.246Z,24.85
2022-08-17T01:41:17.346Z,24.83
2022-08-17T01:43:49.345Z,24.65
2022-08-17T01:46:22.370Z,24.40
2022-08-17T01:48:51.574Z,24.75
2022-08-17T01:51:20.583Z,24.38
2022-08-17T01:53:54.063Z,24.40
2022-08-17T01:56:25.465Z,25.17
2022-08-17T01:58:54.248Z,24.83
2022-08-17T02:01:24.623Z,25.70
2022-08-17T02:03:56.162Z,27.40
2022-08-17T02:06:28.490Z,26.38
2022-08-17T02:09:02.894Z,26.85
2022-08-17T02:11:33.482Z,25.25
2022-08-17T02:14:04.009Z,26.30
2022-08-17T02:16:36.974Z,25.92
2022-08-17T02:19:07.991Z,27.30
2022-08-17T02:21:36.592Z,27.00
2022-08-17T02:24:08.076Z,27.45
2022-08-17T02:26:36.467Z,27.58
2022-08-17T02:29:05.125Z,27.48
2022-08-17T02:31:33.290Z,26.70
2022-08-17T02:34:04.671Z,27.80
2022-08-17T02:36:34.801Z,28.55
2022-08-17T02:39:03.245Z,25.45
2022-08-17T02:41:33.014Z,27.35
2022-08-17T02:44:01.584Z,27.20
2022-08-17T02:46:31.033Z,28.67
2022-08-17T02:48:59.543Z,27.27
2022-08-17T02:51:28.649Z,26.90
2022-08-17T02:54:38.988Z,26.88
2022-08-17T02:56:46.672Z,29.00
2022-08-17T02:59:14.731Z,27.73
2022-08-17T03:07:13.547Z,26.42
2022-08-17T03:09:41.680Z,27.52
2022-08-17T03:12:13.807Z,28.27
2022-08-17T03:14:43.053Z,28.83
2022-08-17T03:17:15.891Z,29.13
2022-08-17T03:19:45.644Z,27.33
2022-08-17T03:22:36.583Z,28.42
2022-08-17T03:25:01.842Z,26.83
2022-08-17T03:27:31.873Z,28.05
2022-08-17T03:29:59.917Z,27.65
2022-08-17T03:32:28.102Z,29.70
2022-08-17T03:35:00.455Z,30.70
2022-08-17T03:37:28.618Z,28.85
2022-08-17T03:39:56.762Z,28.75
2022-08-17T03:42:32.224Z,28.15
2022-08-17T03:45:03.511Z,29.55
2022-08-17T03:47:49.076Z,28.65
2022-08-17T03:50:35.772Z,27.50
2022-08-17T03:53:24.247Z,28.55
2022-08-17T03:56:09.952Z,28.65
2022-08-17T03:58:37.990Z,27.20
2022-08-17T04:01:08.145Z,27.40
2022-08-17T04:07:45.791Z,26.55
2022-08-17T04:10:14.729Z,26.88
2022-08-17T04:12:49.259Z,29.35
2022-08-17T04:15:18.485Z,27.10
2022-08-17T04:17:48.446Z,27.38
2022-08-17T04:20:18.902Z,25.95
2022-08-17T04:22:58.129Z,28.20
2022-08-17T04:25:27.394Z,28.20
2022-08-17T04:27:55.589Z,28.05
2022-08-17T04:30:24.479Z,27.77
2022-08-17T04:33:03.472Z,28.77
2022-08-17T04:47:07.226Z,29.25
2022-08-17T04:49:40.087Z,29.25
2022-08-17T04:52:08.190Z,29.70
2022-08-17T04:54:56.178Z,30.27
2022-08-17T04:57:24.283Z,28.45
2022-08-17T04:59:52.317Z,28.75
2022-08-17T05:02:20.419Z,28.98
2022-08-17T05:04:50.016Z,30.38
2022-08-17T05:07:23.108Z,28.52
2022-08-17T05:09:52.118Z,28.27
2022-08-17T05:12:20.157Z,28.75
2022-08-17T05:14:48.221Z,26.77
2022-08-17T05:17:16.591Z,26.92
2022-08-17T05:19:47.656Z,26.13
2022-08-17T05:22:20.837Z,26.33
2022-08-17T05:24:53.346Z,25.80
2022-08-17T05:27:22.828Z,25.25
2022-08-17T05:29:51.634Z,25.33
2022-08-17T05:32:47.897Z,23.63
2022-08-17T05:35:11.003Z,24.13
2022-08-17T05:37:40.430Z,22.77
2022-08-17T05:40:09.915Z,21.08
2022-08-17T05:42:38.194Z,20.67
2022-08-17T05:45:07.162Z,20.10
2022-08-17T05:47:35.420Z,20.33
2022-08-17T05:50:09.594Z,19.60
2022-08-17T05:52:48.951Z,19.33
2022-08-17T05:55:25.084Z,19.50
2022-08-17T05:58:06.381Z,19.48
2022-08-17T06:00:42.079Z,17.75
2022-08-17T06:03:39.286Z,19.52
2022-08-17T06:06:31.602Z,19.02
2022-08-17T06:09:12.774Z,21.30
2022-08-17T06:11:46.673Z,22.58
2022-08-17T06:14:32.552Z,20.63
2022-08-17T06:17:04.939Z,21.73
2022-08-17T06:19:38.333Z,21.08
2022-08-17T06:22:08.653Z,23.90
2022-08-17T06:24:43.407Z,22.77
2022-08-17T06:27:19.878Z,24.15
2022-08-17T06:29:55.245Z,23.05
2022-08-17T06:32:23.312Z,23.15
2022-08-17T06:34:52.557Z,23.25
2022-08-17T06:37:43.110Z,23.85
2022-08-17T06:40:32.075Z,24.42
2022-08-17T06:43:14.279Z,23.70
2022-08-17T06:45:49.309Z,24.15
2022-08-17T06:48:25.533Z,23.85
2022-08-17T06:51:00.141Z,24.73
2022-08-17T06:53:32.086Z,24.15
2022-08-17T06:56:06.095Z,25.48
2022-08-17T06:58:35.686Z,25.02
2022-08-17T07:01:09.518Z,25.65
2022-08-17T07:03:42.172Z,22.95
2022-08-17T07:06:18.020Z,22.55
2022-08-17T07:08:54.144Z,22.58
2022-08-17T07:11:28.984Z,23.45
2022-08-17T07:14:07.211Z,22.17
2022-08-17T07:16:41.167Z,21.83
2022-08-17T07:19:10.876Z,21.38
2022-08-17T07:21:50.575Z,22.25
2022-08-17T07:24:33.140Z,20.83
2022-08-17T07:27:16.159Z,20.65
2022-08-17T07:29:50.509Z,20.55
2022-08-17T07:32:23.141Z,20.45
2022-08-17T07:35:02.871Z,21.52
2022-08-17T07:37:33.406Z,21.60
2022-08-17T07:40:16.849Z,21.73
2022-08-17T07:43:22.011Z,22.60
2022-08-17T07:46:37.696Z,21.60
2022-08-17T07:49:24.937Z,22.42
2022-08-17T07:52:23.885Z,22.33
2022-08-17T07:54:48.361Z,22.95
2022-08-17T07:57:34.368Z,24.00
2022-08-17T08:00:16.799Z,25.95
2022-08-17T08:02:47.920Z,25.83
2022-08-17T08:05:48.606Z,25.90
2022-08-17T08:08:25.965Z,28.02
2022-08-17T08:11:04.390Z,28.80
2022-08-17T08:13:33.273Z,28.63
2022-08-17T08:16:25.551Z,28.58
2022-08-17T08:18:57.498Z,27.90
2022-08-17T08:21:45.044Z,25.88
2022-08-17T08:24:34.745Z,26.55
2022-08-17T08:27:11.521Z,25.67
2022-08-17T08:29:53.928Z,22.98
2022-08-17T08:32:33.662Z,24.88
2022-08-17T08:35:07.580Z,24.27
2022-08-17T08:37:44.397Z,24.65
2022-08-17T08:40:29.857Z,25.08
2022-08-17T08:43:04.494Z,25.67
2022-08-17T08:45:39.694Z,26.77
2022-08-17T08:48:45.883Z,26.60
2022-08-17T08:51:19.818Z,28.23
2022-08-17T08:53:58.249Z,30.50
2022-08-17T08:56:35.341Z,31.25
2022-08-17T08:59:15.930Z,28.98
2022-08-17T09:01:56.095Z,31.08
2022-08-17T09:05:12.917Z,30.60
2022-08-17T09:07:45.307Z,30.65
2022-08-17T09:10:24.711Z,30.25
2022-08-17T09:13:09.593Z,32.25
2022-08-17T09:15:44.085Z,30.17
2022-08-17T09:19:01.796Z,29.63
2022-08-17T09:21:25.106Z,27.25
2022-08-17T09:24:06.968Z,24.55
2022-08-17T09:26:42.297Z,24.98
2022-08-17T09:29:16.668Z,26.00
2022-08-17T09:31:52.619Z,25.92
2022-08-17T09:34:31.972Z,25.70
2022-08-17T09:37:15.971Z,26.55
2022-08-17T09:39:52.522Z,26.33
2022-08-17T09:42:27.976Z,27.05
2022-08-17T09:45:07.830Z,25.45
2022-08-17T09:47:46.695Z,24.33
2022-08-17T09:51:05.530Z,23.60
2022-08-17T09:53:11.464Z,22.98
2022-08-17T09:56:02.168Z,22.13
2022-08-17T09:58:41.885Z,21.73
2022-08-17T10:01:29.122Z,22.95
2022-08-17T10:04:11.892Z,23.35
2022-08-17T10:06:51.294Z,22.70
2022-08-17T10:09:29.398Z,22.13
2022-08-17T10:12:21.381Z,21.05
2022-08-17T10:15:07.899Z,21.00
2022-08-17T10:17:43.972Z,21.88
2022-08-17T10:33:48.530Z,21.92
2022-08-17T10:36:24.665Z,22.50
2022-08-17T10:39:04.352Z,22.10
2022-08-17T10:41:40.319Z,21.52
2022-08-17T10:44:38.236Z,23.00
2022-08-17T10:47:09.206Z,24.15
2022-08-17T10:49:39.408Z,23.40
2022-08-17T10:52:50.113Z,24.52
2022-08-17T10:55:20.467Z,25.45
2022-08-17T10:57:50.708Z,25.00
2022-08-17T11:01:12.537Z,26.83
2022-08-17T11:03:54.753Z,24.73
2022-08-17T11:06:32.846Z,26.45
2022-08-17T11:09:27.878Z,26.77
2022-08-17T11:12:20.440Z,27.77
2022-08-17T11:15:19.595Z,29.45
2022-08-17T11:18:10.998Z,27.92
2022-08-17T11:21:09.057Z,27.60
2022-08-17T11:24:12.952Z,29.60
2022-08-17T11:26:48.807Z,28.05
2022-08-17T11:29:24.817Z,28.25
2022-08-17T11:32:03.014Z,29.92
2022-08-17T11:34:32.935Z,29.88
2022-08-17T11:37:25.312Z,30.13
2022-08-17T11:40:19.842Z,29.92
2022-08-17T11:43:03.611Z,30.80
2022-08-17T11:45:52.904Z,30.65
2022-08-17T11:48:48.739Z,31.05
2022-08-17T11:51:42.068Z,31.45
2022-08-17T11:54:35.700Z,29.60
2022-08-17T11:57:43.091Z,30.48
2022-08-17T12:00:54.789Z,30.35
2022-08-17T12:03:42.426Z,30.00
2022-08-17T12:06:31.527Z,29.95
2022-08-17T12:09:06.901Z,28.27
2022-08-17T12:11:57.795Z,27.20
2022-08-17T12:17:39.687Z,27.30
2022-08-17T12:20:15.153Z,29.08
2022-08-17T12:22:54.889Z,28.55
2022-08-17T12:25:33.103Z,29.08
2022-08-17T12:28:06.491Z,28.70
2022-08-17T12:30:37.810Z,27.92
2022-08-17T12:33:25.750Z,29.10
2022-08-17T12:36:00.078Z,29.88
2022-08-17T12:38:33.123Z,28.17
2022-08-17T12:41:24.442Z,29.48
2022-08-17T12:44:02.180Z,28.77
2022-08-17T12:46:34.926Z,26.90
2022-08-17T12:49:16.432Z,28.45
2022-08-17T12:51:46.482Z,26.83
2022-08-17T12:54:29.226Z,27.85
2022-08-17T12:57:00.167Z,27.58
2022-08-17T12:59:30.226Z,28.75
2022-08-17T13:01:59.074Z,27.77
2022-08-17T13:04:29.675Z,28.25
2022-08-17T13:06:59.914Z,27.83
2022-08-17T13:09:35.257Z,29.45
2022-08-17T13:12:09.351Z,28.45
2022-08-17T13:14:37.759Z,29.85
2022-08-17T13:17:11.263Z,29.70
2022-08-17T13:19:50.782Z,29.45
2022-08-17T13:22:23.413Z,28.98
2022-08-17T13:24:54.489Z,31.00
2022-08-17T13:27:25.032Z,30.25
2022-08-17T13:29:57.248Z,28.35
2022-08-17T13:32:37.142Z,28.90
2022-08-17T13:35:39.582Z,29.60
2022-08-17T13:38:10.638Z,27.02
2022-08-17T13:40:45.677Z,28.48
2022-08-17T13:43:33.763Z,26.33
2022-08-17T13:46:10.308Z,25.77
2022-08-17T13:48:38.788Z,26.33
2022-08-17T13:51:16.693Z,27.30
2022-08-17T13:54:14.485Z,26.83
2022-08-17T13:56:55.466Z,26.45
2022-08-17T13:59:53.622Z,25.33
2022-08-17T14:02:20.585Z,26.85
2022-08-17T14:04:50.300Z,26.23
2022-08-17T14:07:30.883Z,25.70
2022-08-17T14:10:02.316Z,25.05
2022-08-17T14:12:33.143Z,25.90
2022-08-17T14:15:01.740Z,25.38
2022-08-17T14:17:36.367Z,25.23
2022-08-17T14:20:09.499Z,24.73
2022-08-17T14:22:44.029Z,24.33
2022-08-17T14:25:13.423Z,24.08
2022-08-17T14:27:41.880Z,22.95
2022-08-17T14:30:23.090Z,23.70
2022-08-17T14:32:52.163Z,23.55
2022-08-17T14:35:23.231Z,24.20
2022-08-17T14:37:53.827Z,22.88
2022-08-17T14:40:24.941Z,24.35
2022-08-17T14:42:55.487Z,23.65
2022-08-17T14:45:31.470Z,25.23
2022-08-17T14:48:04.164Z,22.33
2022-08-17T14:50:35.542Z,24.63
2022-08-17T14:53:06.377Z,23.65
2022-08-17T14:55:35.019Z,24.42
2022-08-17T14:58:03.987Z,24.45
2022-08-17T15:00:32.498Z,25.02
2022-08-17T15:03:01.905Z,24.77
2022-08-17T15:05:32.545Z,26.58
2022-08-17T15:08:01.578Z,24.75
2022-08-17T15:10:32.376Z,23.92
2022-08-17T15:13:01.098Z,24.73
2022-08-17T15:15:29.656Z,25.60
2022-08-17T15:17:58.652Z,26.00
2022-08-17T15:20:29.026Z,24.77
2022-08-17T15:22:59.054Z,24.90
2022-08-17T15:25:29.223Z,25.38
2022-08-17T15:27:59.105Z,26.73
2022-08-17T15:30:27.990Z,27.63
2022-08-17T15:32:57.450Z,25.98
2022-08-17T15:35:29.175Z,25.10
2022-08-17T15:38:04.622Z,25.58
2022-08-17T15:40:34.951Z,26.55
2022-08-17T15:43:07.388Z,26.15
2022-08-17T15:45:35.530Z,26.10
2022-08-17T15:48:03.868Z,27.05
2022-08-17T15:50:33.923Z,26.13
2022-08-17T15:53:03.476Z,27.30
2022-08-17T15:55:32.865Z,25.85
2022-08-17T15:58:01.387Z,27.38
2022-08-17T16:00:31.060Z,24.92
2022-08-17T16:03:46.148Z,27.50
2022-08-17T16:05:54.988Z,27.88
2022-08-17T16:08:25.278Z,29.05
2022-08-17T16:10:53.524Z,29.83
2022-08-17T16:13:23.749Z,29.30
2022-08-17T16:15:56.963Z,29.83
2022-08-17T16:18:31.031Z,29.88
2022-08-17T16:21:20.539Z,27.17
2022-08-17T16:23:49.532Z,29.33
2022-08-17T16:26:18.050Z,28.10
2022-08-17T16:28:46.682Z,29.15
2022-08-17T16:31:17.599Z,27.65
2022-08-17T16:34:03.873Z,30.42
2022-08-17T16:36:33.895Z,29.20
2022-08-17T16:39:02.040Z,29.90
2022-08-17T16:41:45.372Z,28.85
2022-08-17T16:44:15.358Z,28.50
2022-08-17T16:46:46.203Z,29.48
2022-08-17T16:49:35.728Z,29.17
2022-08-17T16:52:04.543Z,29.08
2022-08-17T16:54:35.508Z,27.98
2022-08-17T16:57:06.524Z,28.13
2022-08-17T16:59:41.006Z,27.73
2022-08-17T17:02:19.443Z,28.08
2022-08-17T17:04:52.820Z,27.92
2022-08-17T17:07:49.568Z,29.08
2022-08-17T17:10:20.992Z,29.38
2022-08-17T17:13:03.989Z,29.70
2022-08-17T17:15:44.004Z,28.45
2022-08-17T17:18:14.808Z,30.83
2022-08-17T17:20:50.456Z,29.08
2022-08-17T17:23:32.600Z,29.92
2022-08-17T17:26:11.057Z,28.67
2022-08-17T17:28:48.748Z,29.30
2022-08-17T17:31:19.806Z,30.30
2022-08-17T17:33:52.787Z,29.20
2022-08-17T17:36:27.212Z,30.80
2022-08-17T17:39:01.363Z,32.80
2022-08-17T17:41:33.863Z,31.10
2022-08-17T17:44:05.962Z,30.73
2022-08-17T17:46:39.547Z,32.00
2022-08-17T17:49:10.620Z,31.33
2022-08-17T17:52:07.196Z,31.90
2022-08-17T17:54:50.607Z,33.33
2022-08-17T17:57:28.104Z,32.78
2022-08-17T18:00:04.447Z,32.33
2022-08-17T18:02:51.894Z,32.78
2022-08-17T18:05:48.374Z,32.03
2022-08-17T18:08:33.823Z,32.38
2022-08-17T18:11:13.886Z,32.20
2022-08-17T18:13:59.426Z,31.27
2022-08-17T18:16:29.667Z,31.75
2022-08-17T18:19:01.351Z,33.88
2022-08-17T18:21:38.876Z,31.42
2022-08-17T18:24:09.004Z,33.03
2022-08-17T18:26:48.286Z,32.97
2022-08-17T18:29:38.405Z,32.55
2022-08-17T18:32:24.000Z,33.28
2022-08-17T18:34:54.677Z,32.45
2022-08-17T18:37:44.851Z,35.05
2022-08-17T18:40:32.067Z,33.05
2022-08-17T18:43:06.360Z,34.20
2022-08-17T18:45:41.519Z,35.55
2022-08-17T18:48:22.119Z,34.97
2022-08-17T18:50:53.298Z,36.67
2022-08-17T18:53:39.489Z,35.60
2022-08-17T18:56:26.267Z,36.30
2022-08-17T18:59:07.285Z,33.67
2022-08-17T19:01:53.621Z,34.95
2022-08-17T19:04:34.892Z,36.53
2022-08-17T19:07:25.716Z,33.58
2022-08-17T19:09:59.964Z,36.10
2022-08-17T19:12:34.185Z,35.38
2022-08-17T19:15:03.585Z,34.38
2022-08-17T19:17:43.837Z,34.05
2022-08-17T19:20:18.572Z,36.88
2022-08-17T19:22:58.530Z,32.33
2022-08-17T19:25:31.666Z,32.65
2022-08-17T19:28:05.359Z,35.75
2022-08-17T19:30:51.142Z,32.25
2022-08-17T19:33:19.998Z,34.08
2022-08-17T19:35:55.355Z,34.20
2022-08-17T19:38:35.014Z,34.20
2022-08-17T19:41:12.557Z,33.80
2022-08-17T19:44:07.789Z,34.45
2022-08-17T19:46:48.830Z,34.55
2022-08-17T19:49:33.219Z,34.33
2022-08-17T19:52:37.496Z,36.50
2022-08-17T19:55:16.927Z,37.05
2022-08-17T19:58:03.027Z,34.95
2022-08-17T20:00:33.292Z,36.85
2022-08-17T20:03:06.452Z,40.10
2022-08-17T20:06:01.396Z,36.35
2022-08-17T20:08:30.277Z,38.33
2022-08-17T20:11:03.737Z,38.33
2022-08-17T20:13:40.189Z,37.65
2022-08-17T20:16:11.144Z,37.42
2022-08-17T20:18:47.535Z,39.22
2022-08-17T20:21:20.548Z,38.17
2022-08-17T20:23:54.792Z,37.78
2022-08-17T20:26:27.324Z,40.17
2022-08-17T20:29:37.586Z,39.10
2022-08-17T20:32:18.466Z,40.22
2022-08-17T20:34:48.783Z,39.63
2022-08-17T20:37:32.680Z,41.35
2022-08-17T20:40:21.323Z,41.78
2022-08-17T20:42:49.616Z,42.60
2022-08-17T20:46:08.786Z,40.10
2022-08-17T20:48:42.876Z,42.17
2022-08-17T20:51:19.922Z,42.30
2022-08-17T20:54:35.729Z,42.70
2022-08-17T20:57:06.744Z,42.15
2022-08-17T21:00:16.541Z,41.67
2022-08-17T21:02:46.744Z,42.50
2022-08-17T21:05:59.727Z,43.35
2022-08-17T21:08:31.746Z,40.58
2022-08-17T21:11:01.176Z,43.95
2022-08-17T21:13:57.876Z,45.38
2022-08-17T21:17:01.463Z,44.75
2022-08-17T21:20:00.652Z,45.42
2022-08-17T21:22:47.112Z,45.53
2022-08-17T21:25:28.066Z,45.22
2022-08-17T21:39:40.733Z,45.17
2022-08-17T21:42:09.421Z,45.38
2022-08-17T21:44:41.616Z,46.25
2022-08-17T21:47:21.001Z,45.10
2022-08-17T21:49:51.994Z,47.88
2022-08-17T21:52:24.359Z,48.72
2022-08-17T21:54:56.747Z,48.90
2022-08-17T21:57:28.274Z,47.22
2022-08-17T21:59:59.222Z,46.78
2022-08-17T22:02:31.324Z,49.60
2022-08-17T22:05:02.366Z,47.85
2022-08-17T22:07:39.938Z,47.78
2022-08-17T22:10:30.452Z,46.58
2022-08-17T22:13:16.945Z,44.45
2022-08-17T22:15:48.070Z,46.28
2022-08-17T22:18:20.863Z,45.17
2022-08-17T22:20:53.293Z,44.90
2022-08-17T22:23:46.832Z,46.55
2022-08-17T22:26:18.556Z,44.28
2022-08-17T22:28:49.165Z,44.10
2022-08-17T22:31:19.102Z,44.60
2022-08-17T22:33:49.537Z,44.22
2022-08-17T22:36:29.176Z,43.97
2022-08-17T22:38:59.753Z,44.10
2022-08-17T22:41:50.488Z,42.45
2022-08-17T22:44:23.175Z,43.30
2022-08-17T22:47:06.694Z,42.63
2022-08-17T22:49:53.767Z,44.20
2022-08-17T22:52:32.630Z,43.33
2022-08-17T22:55:26.279Z,40.97
2022-08-17T22:58:13.062Z,43.13
2022-08-17T23:00:43.633Z,41.10
2022-08-17T23:03:15.228Z,39.33
2022-08-17T23:05:47.395Z,40.75
2022-08-17T23:08:21.081Z,39.55
2022-08-17T23:10:49.765Z,39.17
2022-08-17T23:13:21.301Z,39.75
2022-08-17T23:15:50.975Z,41.38
2022-08-17T23:18:19.084Z,41.58
2022-08-17T23:20:47.783Z,40.63
2022-08-17T23:23:18.003Z,40.33
2022-08-17T23:25:49.358Z,40.63
2022-08-17T23:28:21.502Z,40.33
2022-08-17T23:30:49.593Z,40.88
2022-08-17T23:33:22.306Z,41.50
2022-08-17T23:35:50.343Z,39.78
2022-08-17T23:38:18.505Z,38.42
2022-08-17T23:40:46.627Z,37.53
2022-08-17T23:43:24.106Z,36.30
2022-08-17T23:45:56.189Z,37.22
2022-08-17T23:48:35.268Z,38.25
2022-08-17T23:51:10.649Z,38.88
2022-08-17T23:53:44.071Z,39.72
2022-08-17T23:56:12.171Z,41.22
2022-08-17T23:58:42.214Z,40.45
